This is the latest recevied weather packets stored in our database for station/object KE5VBO-1. If no packets are shown the sender has not sent any weather packets the latest 10 day(s).
| Time | Temp. | Humidity | Pressure | Rain* | Wind** | Luminosity | Snow |
|---|---|---|---|---|---|---|---|
| 1777923904 | 27.22° C | 50% | 1007.3 hPa | 0 mm | - | - | - |
| 1777923040 | 27.22° C | 51% | 1007.4 hPa | 0 mm | - | - | - |
| 1777922105 | 26.67° C | 49% | 1007.6 hPa | 0 mm | - | - | - |
| 1777921244 | 26.67° C | 50% | 1007.9 hPa | 0 mm | - | - | - |
| 1777920303 | 26.67° C | 48% | 1008.1 hPa | 0 mm | - | - | - |
| 1777919438 | 26.11° C | 50% | 1008.3 hPa | 0 mm | - | - | - |
| 1777918506 | 26.11° C | 48% | 1008.6 hPa | 0 mm | - | - | - |
| 1777917639 | 26.11° C | 49% | 1008.8 hPa | 0 mm | - | - | - |
| 1777916707 | 25.56° C | 48% | 1009 hPa | 0 mm | - | - | - |
| 1777915842 | 25.56° C | 48% | 1009.2 hPa | 0 mm | - | - | - |
| 1777914908 | 25° C | 51% | 1009.5 hPa | 0 mm | - | - | - |
| 1777914053 | 24.44° C | 50% | 1009.9 hPa | 0 mm | - | - | - |
| 1777913121 | 24.44° C | 51% | 1010.3 hPa | 0 mm | - | - | - |
| 1777912258 | 23.89° C | 52% | 1010.5 hPa | 0 mm | - | - | - |
| 1777911321 | 23.33° C | 53% | 1010.6 hPa | 0 mm | - | - | - |
| 1777910464 | 23.33° C | 53% | 1010.4 hPa | 0 mm | - | - | - |
| 1777909521 | 22.78° C | 53% | 1010.5 hPa | 0 mm | - | - | - |
| 1777908669 | 22.78° C | 54% | 1010.8 hPa | 0 mm | - | - | - |
| 1777907728 | 22.22° C | 54% | 1011 hPa | 0 mm | - | - | - |
| 1777906855 | 21.67° C | 52% | 1011.1 hPa | 0 mm | - | - | - |
| 1777905932 | 21.11° C | 50% | 1011.3 hPa | 0 mm | - | - | - |
| 1777905065 | 21.11° C | 50% | 1011.4 hPa | 0 mm | - | - | - |
| 1777904132 | 20.56° C | 33% | 1011.2 hPa | 0 mm | - | - | - |
| 1777903273 | 20° C | 39% | 1011.3 hPa | 0 mm | - | - | - |
| 1777902329 | 18.89° C | 23% | 1011.3 hPa | 0 mm | - | - | - |
* Rain latest hour (hover to see other rain measurements)
** Current wind speed in m/s (hover to see current wind gust speed)